Aérodrome :
LOGIN :

S'inscrire | Disclaimer

   EN    FR    IT 

 










Légende :    VFR   VFR Marginal   IFR   IFR Intensif   IFR Très Intensif
Visi : 
Plafond : 
>= 8 km
>= 3000ft
5 à 8 km
1000 à 3000 ft
1500m à 5 km
500 à 1000 ft
800 à 1500m
200 à 500 ft
< 800m
< 200 ft
Symboles :   Orages  Brouillard  Fortes neiges  Fortes précipitations  Vent > 20 kt
SIGMETs :   Divers  Orages  Givrage  Turbulence  Onde Orograph.  Cendres Volcan.







- Altitude de l'aérodrome : 144 ft
- Code IATA : PGF
- Voir les cartes d'approche


LFMP - Perpignan

DERNIER METAR :
  • 262300Z AUTO 08004KT 050V110 7000 BKN007/// BKN011/// BKN200/// 18/17 Q1016

METARs EXPIRÉS :
  • 262230Z AUTO 07005KT 7000 FEW007 SCT190 BKN210 18/17 Q1016
  • 262200Z AUTO 10007KT 9999 FEW009 BKN190 19/17 Q1016
  • 262130Z AUTO 11007KT 9999 FEW010 19/17 Q1016 TEMPO 3000 BR OVC005
  • 262100Z AUTO 11010KT CAVOK 19/17 Q1016 BECMG BKN008
  • 262030Z AUTO 11007KT CAVOK 19/17 Q1016 BECMG BKN008

TAF TAF LFMP
Valide du 26 à 15h jusqu'au 27 à 15h UTC


261400Z 2615/2715 11015KT CAVOK
BECMG 2620/2622 06005KT BKN008
TEMPO 2623/2708 3000 BR OVC005
BECMG 2712/2715 12012KT
ATIS : +33 4 68 63 75 12
Pas de NOTAMs connus pour ce terrain.
1 SIGMET publié pour la FIR Marseille (LFMM) :
 
Turbulence forte
LFMM SIGMET 10 VALID 261900/262300 LFPW
LFMM MARSEILLE FIR/UIR SEV TURB FCST WI N4000 E00430 - N4145 E00430 - N4345 E00745 - N4315 E00945 - N4000 E00430 FL280/400 STNR NC=



MET'MAP, la Météo Aéronautique d'un coup d'oeil ! - Copyright ORBIFLY Décembre 2007 - Disclaimer

ORBIFLY MET'MAP TEAM :

Programmation & Développement : Alexandra Zaïnal
Conception & Développement : Baudouin d'Aumeries
Co-Programmation & Développement : Marc-Olivier Méhu
Soutien technique & logistique : Manuel Goepfert

Contact : metmap@orbifly.com




SOURCES & CREDITS :

   NOAA